Portada
METAR-TAF:

METAR-TAF

Aeropuertos :

Qazvin, Irán

latitud: 36-15N, longitud: 050-00E, altitud: 1278 m

Observación

El informe se hizo hace 1 hora y 45 minutos, a las 22:00 UTC
Viento 4 kt del norte-noreste
Temperatura 4°C
Humedad 87%
Presión 1021 hPa
Visibilidad: 7000 m

METAR: OIIK 142200Z 02004KT 7000 NSC 04/02 Q1021

Hora: 03:15 (23:45 UTC)


TAF: falta

Observaciones y pronósticos meteorológicos de más de 4000 aeropuertos (mensajes METAR y TAF).

Los puntos amarillos y rojos representan las estaciones disponibles.

Ponga el ratón en el punto deseado para ver el nombre de la estación.

Haga clic para ver las observaciones y los pronósticos meteorológicos.

Para cambiar el mapa : haga clic en los botones verdes con una cruz de color negro para hacer un zoom, en el botón verde con un guión para alejar o en las flechas verdes para mapas adyacentes.


METAR-TAF: